LEMG/AGP METAR and TAF weather

Enter ICAO airport designator
Station Type Date Time Source
LEMG METAR 2019/04/25 16:00 UTC NOAA

LEMG 251600Z 18005KT 140V230 9999 FEW020 SCT050 BKN070 19/13 Q1017 NOSIG


Station Type Date Time Source
LEMG Decoded METAR 2019/04/25 16:00 UTC NOAA

Malaga / Aeropuerto, Spain (LEMG) 36-40N 004-29W 7M
Apr 25, 2019 - 12:00 PM EDT / 2019.04.25 1600 UTC
Wind: from the S (180 degrees) at 6 MPH (5 KT) (direction variable):0
Visibility: greater than 7 mile(s):0
Sky conditions: mostly cloudy
Temperature: 66 F (19 C)
Dew Point: 55 F (13 C)
Relative Humidity: 68%
Pressure (altimeter): 30.03 in. Hg (1017 hPa)
ob: LEMG 251600Z 18005KT 140V230 9999 FEW020 SCT050 BKN070 19/13 Q1017 NOSIG
cycle: 16

Station Type Date Time Source
LEMG TAF 2019/04/25 12:27 UTC NOAA

TAF LEMG 251100Z 2512/2612 31007KT 9999 SCT025 BKN045 TX22/2515Z TN12/2606Z
TEMPO 2512/2517 VRB04KT PROB40
TEMPO 2601/2610 29015G25KT

Example: see airport list